Time;durP1;ratioP1;P1;durP2;ratioP2;P2;SDS_P1;SDS_P2;PMS_P1;PMS_P2;Temp;Humidity;BMP_temperature;BMP_pressure;BME280_temperature;BME280_humidity;BME280_pressure;Samples;Min_cycle;Max_cycle;Signal;HPM_P1;HPM_P2
2024/01/20 00:01:36;;;;;;;12.43;9.07;;;;;;;13.15;85.73;100951.91;5089574;28;20027;-88
2024/01/20 00:04:02;;;;;;;14.32;10.13;;;;;;;13.63;84.90;101049.47;5088012;28;20054;-88
2024/01/20 00:06:28;;;;;;;14.48;9.73;;;;;;;13.63;84.56;101066.91;5104659;28;20076;-88
2024/01/20 00:08:55;;;;;;;13.40;9.50;;;;;;;13.42;84.84;101037.97;5087282;28;20043;-86
2024/01/20 00:11:21;;;;;;;13.23;9.05;;;;;;;13.40;84.97;101050.13;5088705;28;20032;-86
2024/01/20 00:13:46;;;;;;;13.57;10.02;;;;;;;13.30;83.97;101058.38;5087238;28;20742;-86
2024/01/20 00:16:12;;;;;;;15.60;10.45;;;;;;;13.57;84.33;101132.25;5088755;28;20494;-87
2024/01/20 00:18:38;;;;;;;16.45;10.75;;;;;;;13.20;84.51;101068.38;5088051;28;20157;-86
2024/01/20 00:21:04;;;;;;;14.77;10.07;;;;;;;13.22;84.39;101090.34;5088665;28;20024;-86
2024/01/20 00:23:29;;;;;;;13.45;9.40;;;;;;;12.93;84.26;101044.38;5088411;28;20099;-87
2024/01/20 00:25:55;;;;;;;14.73;10.15;;;;;;;13.35;84.36;101117.19;5085155;28;20035;-87
2024/01/20 00:28:21;;;;;;;13.50;8.90;;;;;;;13.29;85.10;101075.81;5087413;28;20032;-86
2024/01/20 00:30:47;;;;;;;13.75;9.80;;;;;;;13.28;84.19;101074.00;5087254;28;20086;-86
2024/01/20 00:33:13;;;;;;;12.82;8.80;;;;;;;13.25;85.68;101073.88;5088253;28;20024;-86
2024/01/20 00:35:42;;;;;;;14.88;9.65;;;;;;;13.37;84.33;101111.19;5089383;28;20544;-86
2024/01/20 00:38:08;;;;;;;13.98;9.48;;;;;;;13.34;84.05;101111.06;5103591;28;20409;-85
2024/01/20 00:40:34;;;;;;;13.57;9.82;;;;;;;13.43;83.90;101131.59;5087630;28;20536;-86
2024/01/20 00:43:00;;;;;;;13.82;10.02;;;;;;;13.38;84.19;101134.00;5076387;28;20016;-87
2024/01/20 00:45:25;;;;;;;11.68;9.35;;;;;;;13.30;83.40;101139.69;5088036;28;20024;-86
2024/01/20 00:47:51;;;;;;;15.38;10.38;;;;;;;13.21;83.18;101133.13;5088760;28;20035;-86
2024/01/20 00:50:17;;;;;;;13.18;9.13;;;;;;;13.39;84.21;101168.97;5087665;28;20039;-86
2024/01/20 00:52:42;;;;;;;11.23;8.68;;;;;;;13.36;84.67;101150.47;5067967;28;20108;-86
2024/01/20 00:55:10;;;;;;;13.32;9.02;;;;;;;13.31;85.10;101136.22;5086768;28;20493;-84
2024/01/20 00:57:36;;;;;;;12.52;9.05;;;;;;;13.58;84.88;101195.28;5088004;28;20063;-87
2024/01/20 01:00:07;;;;;;;11.98;8.32;;;;;;;13.37;85.49;101163.66;5089192;28;20024;-87
2024/01/20 01:02:32;;;;;;;11.77;8.50;;;;;;;13.18;85.18;101130.34;5088437;28;20040;-87
2024/01/20 01:04:58;;;;;;;11.45;8.70;;;;;;;13.42;85.24;101175.28;5081983;28;20039;-87
2024/01/20 01:07:25;;;;;;;12.50;8.57;;;;;;;13.54;85.21;101195.06;5088171;28;20135;-86
2024/01/20 01:09:50;;;;;;;12.98;8.57;;;;;;;13.34;85.56;101176.63;5058923;28;20551;-86
2024/01/20 01:12:16;;;;;;;12.45;8.75;;;;;;;13.28;84.00;101191.13;5087290;28;20028;-87
2024/01/20 01:14:42;;;;;;;9.82;7.80;;;;;;;13.51;85.02;101245.66;5086517;28;20036;-87
2024/01/20 01:17:08;;;;;;;12.85;7.72;;;;;;;13.53;85.20;101261.50;5086628;28;20101;-87
2024/01/20 01:19:33;;;;;;;10.60;8.02;;;;;;;13.56;84.97;101274.75;5086043;28;20520;-86
2024/01/20 01:21:59;;;;;;;12.15;9.05;;;;;;;13.05;82.64;101232.81;5070238;28;20028;-88
2024/01/20 01:24:25;;;;;;;11.70;8.63;;;;;;;13.00;83.02;101229.06;5087621;28;20093;-87
2024/01/20 01:26:50;;;;;;;12.65;8.60;;;;;;;13.34;83.61;101299.91;5088123;28;20024;-88
2024/01/20 01:29:16;;;;;;;12.52;9.00;;;;;;;13.25;83.97;101278.44;5089880;28;20062;-87
2024/01/20 01:31:43;;;;;;;13.52;8.82;;;;;;;13.27;84.23;101281.13;5090615;28;20114;-87
2024/01/20 01:34:09;;;;;;;11.73;8.20;;;;;;;12.80;83.16;101221.06;5087454;28;20107;-87
2024/01/20 01:36:35;;;;;;;11.63;8.32;;;;;;;12.93;83.36;101247.91;5082294;28;20558;-87
2024/01/20 01:39:01;;;;;;;12.25;8.05;;;;;;;13.24;84.78;101302.84;5069336;28;20111;-88
2024/01/20 01:41:26;;;;;;;10.10;7.38;;;;;;;13.29;83.28;101343.34;5070661;28;20032;-88
2024/01/20 01:43:52;;;;;;;11.73;8.25;;;;;;;12.73;83.31;101237.28;5075470;28;20078;-87
2024/01/20 01:46:18;;;;;;;10.45;7.80;;;;;;;13.11;83.68;101287.31;5086541;28;20043;-88
2024/01/20 01:48:44;;;;;;;11.73;8.25;;;;;;;13.16;83.80;101293.69;5088206;28;20040;-87
2024/01/20 01:51:12;;;;;;;11.88;8.30;;;;;;;13.30;83.50;101325.91;5090872;28;20112;-87
2024/01/20 01:53:38;;;;;;;10.95;8.23;;;;;;;12.65;83.05;101241.22;5091249;28;20063;-87
2024/01/20 01:56:04;;;;;;;;;;;;;;;13.23;82.35;101338.66;5089121;28;20058;-87
2024/01/20 01:58:29;;;;;;;10.70;7.43;;;;;;;12.78;82.96;101269.91;5090906;28;20002;-87
2024/01/20 02:00:55;;;;;;;11.60;7.57;;;;;;;13.32;84.63;101348.78;5103661;28;20056;-87
2024/01/20 02:03:21;;;;;;;11.32;7.50;;;;;;;13.02;83.63;101299.13;5091311;28;20413;-86
2024/01/20 02:05:47;;;;;;;11.68;7.55;;;;;;;13.17;84.28;101320.00;5075090;28;20089;-87
2024/01/20 02:08:13;;;;;;;10.30;7.13;;;;;;;13.00;83.48;101319.09;5090956;28;20035;-87
2024/01/20 02:10:38;;;;;;;10.15;7.35;;;;;;;13.24;82.17;101385.03;5090307;28;20128;-88
2024/01/20 02:13:05;;;;;;;9.63;7.35;;;;;;;12.84;82.77;101322.63;5088162;28;20032;-87
2024/01/20 02:15:30;;;;;;;;;;;;;;;13.22;82.92;101384.06;5084780;28;20066;-88
2024/01/20 02:17:56;;;;;;;10.63;6.72;;;;;;;13.02;83.71;101348.03;5093349;28;19913;-87
2024/01/20 02:20:23;;;;;;;9.85;7.07;;;;;;;13.19;82.47;101398.75;5092116;28;20457;-88
2024/01/20 02:22:49;;;;;;;10.27;6.78;;;;;;;12.94;83.16;101342.38;5090846;28;20040;-88
2024/01/20 02:25:14;;;;;;;9.13;6.93;;;;;;;13.03;83.65;101339.34;5090377;28;20035;-87
2024/01/20 02:27:40;;;;;;;9.20;6.63;;;;;;;13.09;83.24;101349.25;5090083;28;20036;-88
2024/01/20 02:30:06;;;;;;;8.95;6.88;;;;;;;13.21;82.61;101389.25;5086184;28;20410;-88
2024/01/20 02:32:32;;;;;;;;;;;;;;;13.29;83.51;101402.78;5092312;28;20040;-88
2024/01/20 02:34:57;;;;;;;9.35;6.55;;;;;;;12.99;83.17;101372.34;5076396;28;19916;-88
2024/01/20 02:37:23;;;;;;;9.88;6.22;;;;;;;12.87;81.57;101370.78;5087421;28;20020;-87
2024/01/20 02:39:49;;;;;;;8.32;5.90;;;;;;;12.79;82.21;101367.75;5090468;28;20071;-88
2024/01/20 02:42:15;;;;;;;7.50;5.40;;;;;;;12.60;82.25;101340.53;5090777;28;20020;-89
2024/01/20 02:44:42;;;;;;;7.35;5.47;;;;;;;12.87;81.72;101402.22;5090192;28;20074;-88
2024/01/20 02:47:07;;;;;;;;;;;;;;;13.10;81.55;101443.75;5090795;28;20515;-88
2024/01/20 02:49:34;;;;;;;7.47;5.18;;;;;;;12.96;81.13;101434.22;5089435;28;19920;-87
2024/01/20 02:51:59;;;;;;;7.38;5.60;;;;;;;12.54;82.14;101358.53;5090793;28;20039;-87
2024/01/20 02:54:25;;;;;;;6.05;4.75;;;;;;;12.82;82.61;101413.38;5091384;28;20036;-87
2024/01/20 02:56:51;;;;;;;6.57;5.38;;;;;;;12.63;80.94;101386.97;5089782;28;20113;-87
2024/01/20 02:59:16;;;;;;;7.50;5.38;;;;;;;12.60;81.76;101398.19;5090924;28;20501;-87
2024/01/20 03:01:42;;;;;;;6.45;4.97;;;;;;;13.04;82.48;101460.03;5072014;28;20678;-88
2024/01/20 03:04:08;;;;;;;7.15;5.30;;;;;;;12.81;82.97;101415.94;5086637;28;20043;-88
2024/01/20 03:06:33;;;;;;;7.45;5.13;;;;;;;12.61;82.62;101388.59;5086212;28;20115;-89
2024/01/20 03:08:59;;;;;;;6.53;5.15;;;;;;;12.82;82.09;101439.56;5090184;28;20043;-87
2024/01/20 03:11:25;;;;;;;6.78;4.78;;;;;;;13.09;81.77;101477.75;5089485;28;20027;-88
2024/01/20 03:13:51;;;;;;;6.68;5.05;;;;;;;12.88;81.98;101431.16;5090541;28;20836;-87
2024/01/20 03:16:16;;;;;;;6.43;4.47;;;;;;;13.00;81.98;101454.53;5105627;28;20118;-87
2024/01/20 03:18:42;;;;;;;6.65;4.65;;;;;;;12.97;81.56;101467.47;5081207;28;20455;-87
2024/01/20 03:21:08;;;;;;;6.10;4.50;;;;;;;12.92;81.63;101471.56;5104865;28;20028;-86
2024/01/20 03:23:34;;;;;;;4.65;3.97;;;;;;;12.46;81.10;101393.88;5089540;28;20035;-88
2024/01/20 03:26:10;;;;;;;6.20;4.72;;;;;;;12.75;81.52;101447.94;5089682;28;20020;-88
2024/01/20 03:28:36;;;;;;;7.30;4.65;;;;;;;12.66;81.50;101415.03;5090608;28;20035;-88
2024/01/20 03:31:02;;;;;;;5.80;4.10;;;;;;;12.52;81.37;101419.53;5087344;28;20437;-88
2024/01/20 03:33:28;;;;;;;5.63;4.25;;;;;;;12.94;81.80;101499.66;5090277;28;20070;-87
2024/01/20 03:35:54;;;;;;;7.18;4.30;;;;;;;12.83;81.37;101485.06;5087930;28;20032;-88
2024/01/20 03:38:20;;;;;;;5.85;4.30;;;;;;;12.39;82.18;101428.41;5073253;28;20085;-88
2024/01/20 03:40:46;;;;;;;5.38;4.13;;;;;;;12.65;81.23;101494.50;5070050;28;20032;-87
2024/01/20 03:43:12;;;;;;;5.60;3.97;;;;;;;12.76;81.66;101515.28;5091540;28;20103;-87
2024/01/20 03:45:43;;;;;;;5.78;3.72;;;;;;;12.88;82.08;101541.25;5091346;28;20035;-87
2024/01/20 03:48:09;;;;;;;5.85;3.97;;;;;;;12.21;81.86;101428.25;5090389;28;20028;-88
2024/01/20 03:50:35;;;;;;;4.85;3.55;;;;;;;12.41;81.48;101463.47;5089496;28;20512;-88
2024/01/20 03:53:01;;;;;;;;;;;;;;;12.81;80.50;101565.31;5107737;28;20413;-88
2024/01/20 03:55:26;;;;;;;4.82;3.47;;;;;;;12.52;80.73;101517.34;5105411;28;19920;-88
2024/01/20 03:57:53;;;;;;;4.85;3.72;;;;;;;12.33;80.45;101502.28;5088856;28;20575;-88
2024/01/20 04:00:20;;;;;;;5.03;3.95;;;;;;;12.13;80.71;101474.06;5088152;28;20044;-88
2024/01/20 04:02:46;;;;;;;4.40;3.45;;;;;;;12.56;81.38;101555.13;5073542;28;20035;-89
2024/01/20 04:05:12;;;;;;;4.75;3.15;;;;;;;12.38;81.83;101520.88;5060305;28;20417;-89
2024/01/20 04:07:38;;;;;;;5.38;3.75;;;;;;;12.30;82.34;101499.50;5088811;28;20032;-89
2024/01/20 04:10:04;;;;;;;4.80;3.40;;;;;;;12.65;82.06;101570.47;5106602;28;20024;-88
2024/01/20 04:12:30;;;;;;;4.70;3.42;;;;;;;12.67;81.66;101577.63;5089775;28;20028;-88
2024/01/20 04:14:56;;;;;;;4.45;3.20;;;;;;;12.21;80.97;101514.66;5087126;28;20119;-89
2024/01/20 04:17:22;;;;;;;5.55;2.95;;;;;;;12.17;80.79;101531.91;5089525;28;20130;-88
2024/01/20 04:19:47;;;;;;;;;;;;;;;12.72;80.72;101654.81;5083545;28;20069;-88
2024/01/20 04:22:13;;;;;;;4.80;3.15;;;;;;;12.60;80.42;101633.09;5068763;28;19920;-89
2024/01/20 04:24:39;;;;;;;4.57;3.00;;;;;;;12.32;80.61;101586.94;5052697;28;20032;-89
2024/01/20 04:27:05;;;;;;;5.10;3.30;;;;;;;12.09;81.48;101524.44;5081066;28;20483;-87
2024/01/20 04:29:31;;;;;;;3.80;3.00;;;;;;;12.18;81.98;101549.41;5071699;28;20074;-87
2024/01/20 04:31:57;;;;;;;3.63;2.95;;;;;;;12.32;81.17;101586.00;5092058;28;20036;-86
2024/01/20 04:34:23;;;;;;;3.75;3.17;;;;;;;12.61;81.64;101635.81;5069684;28;20039;-89
2024/01/20 04:36:48;;;;;;;4.20;3.15;;;;;;;12.11;81.26;101565.59;5071553;28;20405;-88
2024/01/20 04:39:14;;;;;;;3.90;3.03;;;;;;;12.47;80.24;101638.44;5088837;28;20046;-88
2024/01/20 04:41:40;;;;;;;2.75;2.45;;;;;;;12.22;80.69;101616.88;5088233;28;20050;-88
2024/01/20 04:44:06;;;;;;;4.07;3.00;;;;;;;12.36;80.78;101637.75;5072435;28;20031;-88
2024/01/20 04:46:32;;;;;;;3.92;2.58;;;;;;;12.47;80.96;101655.06;5087948;28;20501;-88
2024/01/20 04:48:57;;;;;;;3.33;2.65;;;;;;;12.55;80.52;101685.25;5071182;28;20085;-89
2024/01/20 04:51:23;;;;;;;4.32;2.80;;;;;;;12.31;80.67;101632.25;5062128;28;20067;-88
2024/01/20 04:53:49;;;;;;;3.15;2.75;;;;;;;12.34;81.06;101647.22;5067342;28;20051;-86
2024/01/20 04:56:22;;;;;;;3.47;2.97;;;;;;;12.71;80.77;101704.50;5088323;28;20502;-87
2024/01/20 04:58:55;;;;;;;4.57;3.20;;;;;;;12.54;80.88;101675.56;5087706;28;20027;-87
2024/01/20 05:01:21;;;;;;;2.80;2.40;;;;;;;12.68;80.22;101701.69;5088203;28;20031;-87
2024/01/20 05:03:46;;;;;;;3.50;3.00;;;;;;;12.64;80.91;101692.75;5085814;28;20032;-87
2024/01/20 05:06:13;;;;;;;2.92;2.35;;;;;;;12.68;81.47;101684.25;5079034;28;20094;-88
2024/01/20 05:08:38;;;;;;;3.17;2.58;;;;;;;12.55;81.87;101665.97;5058278;28;20494;-87
2024/01/20 05:11:04;;;;;;;2.60;2.40;;;;;;;12.69;81.28;101706.13;5085536;28;20097;-87
2024/01/20 05:13:30;;;;;;;3.67;2.95;;;;;;;12.41;80.14;101665.16;5087956;28;20039;-87
2024/01/20 05:15:56;;;;;;;4.22;2.92;;;;;;;12.43;80.85;101694.97;5085730;28;20036;-86
2024/01/20 05:18:21;;;;;;;3.55;2.80;;;;;;;12.79;81.37;101738.22;5085334;28;20517;-87
2024/01/20 05:20:47;;;;;;;3.63;2.58;;;;;;;12.51;80.55;101696.34;5088057;28;20044;-88
2024/01/20 05:23:13;;;;;;;2.90;2.47;;;;;;;12.43;80.32;101701.09;5087816;28;20056;-87
2024/01/20 05:25:38;;;;;;;3.78;2.83;;;;;;;12.72;80.43;101766.56;5088228;28;20028;-86
2024/01/20 05:28:04;;;;;;;3.88;2.60;;;;;;;12.39;80.93;101698.22;5088131;28;20555;-87
2024/01/20 05:30:30;;;;;;;3.42;2.78;;;;;;;12.49;81.05;101718.91;5092615;28;20032;-85
2024/01/20 05:32:56;;;;;;;3.33;2.60;;;;;;;12.65;81.02;101752.19;5093428;28;20505;-86
2024/01/20 05:35:22;;;;;;;3.80;2.60;;;;;;;12.37;80.90;101702.44;5092634;28;20032;-85
2024/01/20 05:37:47;;;;;;;3.13;2.55;;;;;;;12.35;80.93;101725.91;5074833;28;20409;-84
2024/01/20 05:40:13;;;;;;;2.50;2.30;;;;;;;12.37;80.48;101737.41;5093623;28;20043;-86
2024/01/20 05:42:39;;;;;;;4.15;3.03;;;;;;;12.27;79.69;101739.34;5088623;28;20031;-86
2024/01/20 05:45:08;;;;;;;3.72;2.80;;;;;;;12.54;79.92;101762.03;5091178;28;20040;-86
2024/01/20 05:47:36;;;;;;;3.28;2.70;;;;;;;12.19;80.10;101700.50;5091348;28;20040;-86
2024/01/20 05:50:03;;;;;;;3.80;2.90;;;;;;;12.64;80.28;101792.34;5086187;28;20386;-86
2024/01/20 05:52:29;;;;;;;3.17;2.70;;;;;;;12.35;80.35;101749.50;5089830;28;20024;-86
2024/01/20 05:54:54;;;;;;;5.70;2.88;;;;;;;12.34;79.83;101752.00;5091418;28;20054;-86
2024/01/20 05:57:20;;;;;;;3.22;2.65;;;;;;;12.53;80.58;101795.97;5082241;28;20040;-86
2024/01/20 05:59:46;;;;;;;2.55;2.35;;;;;;;12.45;80.75;101756.22;5090986;28;20090;-86
2024/01/20 06:02:11;;;;;;;3.13;2.80;;;;;;;12.51;80.78;101774.00;5080755;28;20066;-86
2024/01/20 06:04:37;;;;;;;4.20;2.60;;;;;;;12.67;81.42;101800.38;5089349;28;20036;-86
2024/01/20 06:07:03;;;;;;;3.33;2.50;;;;;;;12.55;79.95;101795.28;5089437;28;20424;-86
2024/01/20 06:09:28;;;;;;;3.15;2.85;;;;;;;12.46;79.69;101807.78;5085955;28;20040;-86
2024/01/20 06:11:54;;;;;;;3.58;3.13;;;;;;;12.39;80.44;101792.50;5087441;28;20093;-90
2024/01/20 06:14:20;;;;;;;3.42;2.80;;;;;;;12.50;80.63;101824.63;5069924;28;20043;-87
2024/01/20 06:16:45;;;;;;;3.58;3.08;;;;;;;12.36;80.14;101819.41;5085598;28;20096;-87
2024/01/20 06:19:11;;;;;;;3.50;3.03;;;;;;;12.45;80.36;101840.06;5086077;28;20032;-87
2024/01/20 06:21:37;;;;;;;3.75;3.00;;;;;;;12.57;80.14;101855.63;5087216;28;20413;-86
2024/01/20 06:24:03;;;;;;;3.35;2.95;;;;;;;12.53;80.18;101845.75;5088306;28;20107;-84
2024/01/20 06:26:28;;;;;;;2.90;2.60;;;;;;;12.56;80.50;101852.09;5087512;28;20123;-85
2024/01/20 06:28:54;;;;;;;3.28;2.75;;;;;;;12.36;80.26;101818.50;5087042;28;20489;-87
2024/01/20 06:31:26;;;;;;;3.47;2.80;;;;;;;12.41;79.97;101838.94;5082789;28;20029;-85
2024/01/20 06:33:53;;;;;;;3.63;2.92;;;;;;;12.42;80.27;101840.78;5081778;28;20509;-85
2024/01/20 06:36:26;;;;;;;3.40;2.90;;;;;;;12.34;80.61;101841.06;5088066;28;20028;-87
2024/01/20 06:38:53;;;;;;;3.10;2.80;;;;;;;12.51;80.23;101871.88;5079177;28;20485;-87
2024/01/20 06:41:18;;;;;;;3.33;3.00;;;;;;;12.29;80.16;101819.81;5104118;28;20028;-86
2024/01/20 06:43:44;;;;;;;3.60;3.13;;;;;;;12.50;80.19;101856.97;5087232;28;20028;-85
2024/01/20 06:46:10;;;;;;;3.22;2.63;;;;;;;12.56;80.53;101877.41;5085758;28;20024;-86
2024/01/20 06:48:36;;;;;;;3.10;2.80;;;;;;;12.30;80.00;101839.97;5102307;27;20075;-87
2024/01/20 06:51:06;;;;;;;4.00;2.75;;;;;;;12.15;79.55;101842.53;5069406;28;20497;-86
2024/01/20 06:53:32;;;;;;;3.40;3.03;;;;;;;12.21;79.49;101860.31;5070110;28;20044;-86
2024/01/20 06:55:58;;;;;;;2.88;2.42;;;;;;;12.20;79.54;101864.66;5088786;28;20040;-85
2024/01/20 06:58:24;;;;;;;3.80;3.15;;;;;;;12.16;79.25;101864.38;5102371;28;20043;-86
2024/01/20 07:00:50;;;;;;;4.88;3.17;;;;;;;12.22;79.31;101889.25;5085132;28;20028;-86
2024/01/20 07:03:16;;;;;;;4.82;3.45;;;;;;;12.33;79.52;101899.50;5083532;28;20028;-86
2024/01/20 07:05:42;;;;;;;;;;;;;;;12.41;79.67;101916.63;5068642;28;20040;-86
2024/01/20 07:08:12;;;;;;;4.78;3.10;;;;;;;12.37;80.04;101920.75;5085232;28;19916;-87
2024/01/20 07:10:38;;;;;;;3.72;2.85;;;;;;;12.24;80.31;101902.44;5098841;27;20020;-87
2024/01/20 07:13:04;;;;;;;3.30;2.80;;;;;;;12.16;80.12;101873.13;5088069;28;20020;-85
2024/01/20 07:15:29;;;;;;;3.75;3.05;;;;;;;12.09;79.78;101881.41;5085345;28;20102;-86
2024/01/20 07:17:58;;;;;;;3.25;2.90;;;;;;;12.16;79.92;101903.66;5088495;28;20028;-86
2024/01/20 07:20:25;;;;;;;3.20;2.90;;;;;;;12.06;79.90;101875.94;5087715;28;20024;-87
2024/01/20 07:22:52;;;;;;;4.05;3.10;;;;;;;12.35;79.75;101927.59;5084062;28;20020;-87
2024/01/20 07:25:18;;;;;;;3.22;2.80;;;;;;;12.23;79.38;101916.31;5087796;28;20114;-86
2024/01/20 07:27:43;;;;;;;;;;;;;;;12.40;79.57;101935.75;5071415;28;20039;-87
2024/01/20 07:30:10;;;;;;;3.38;2.63;;;;;;;12.36;79.83;101955.63;5084501;28;20006;-86
2024/01/20 07:32:37;;;;;;;;;;;;;;;12.37;80.35;101960.06;5088766;28;20100;-86
2024/01/20 07:35:04;;;;;;;3.20;2.63;;;;;;;12.14;79.93;101927.09;5070880;28;19924;-87
2024/01/20 07:37:30;;;;;;;3.10;2.80;;;;;;;12.21;80.30;101926.72;5088130;28;20102;-85
2024/01/20 07:39:55;;;;;;;3.13;2.60;;;;;;;12.07;80.77;101901.34;5087302;28;20046;-85
2024/01/20 07:42:21;;;;;;;2.78;2.50;;;;;;;12.15;80.30;101907.97;5086917;28;20039;-86
2024/01/20 07:44:47;;;;;;;2.95;2.30;;;;;;;12.13;80.77;101890.38;5067215;28;20025;-86
2024/01/20 07:47:15;;;;;;;3.42;2.88;;;;;;;12.27;80.88;101927.91;5085175;28;20036;-87
2024/01/20 07:49:40;;;;;;;2.67;2.40;;;;;;;12.31;80.82;101943.03;5088934;28;20158;-85
2024/01/20 07:52:06;;;;;;;3.78;2.63;;;;;;;12.16;80.30;101928.13;5070683;28;20115;-87
2024/01/20 07:54:32;;;;;;;3.40;2.60;;;;;;;11.83;80.35;101871.75;5088543;28;20481;-86
2024/01/20 07:56:57;;;;;;;2.92;2.63;;;;;;;12.34;80.83;101980.81;5083704;28;20051;-85
2024/01/20 07:59:23;;;;;;;2.67;2.35;;;;;;;12.29;80.96;101974.34;5092963;27;20119;-84
2024/01/20 08:01:49;;;;;;;2.60;2.17;;;;;;;12.26;80.82;101966.31;5086723;28;20055;-86
2024/01/20 08:04:15;;;;;;;2.72;2.50;;;;;;;12.19;81.15;101971.91;5083120;28;20062;-85
2024/01/20 08:06:41;;;;;;;3.00;2.50;;;;;;;12.04;80.55;101942.09;5079160;28;20035;-85
2024/01/20 08:09:07;;;;;;;2.45;2.25;;;;;;;12.01;80.56;101948.03;5063386;28;20036;-84
2024/01/20 08:11:32;;;;;;;2.88;2.60;;;;;;;12.05;80.27;101954.41;5086067;28;20047;-87
2024/01/20 08:13:58;;;;;;;3.08;2.63;;;;;;;12.19;80.58;101974.53;5072080;28;20125;-86
2024/01/20 08:16:28;;;;;;;3.03;2.80;;;;;;;12.00;80.46;101956.69;5082548;28;20056;-88
2024/01/20 08:18:55;;;;;;;3.55;2.53;;;;;;;12.06;80.60;101974.53;5085619;28;20044;-85
2024/01/20 08:21:21;;;;;;;2.65;2.30;;;;;;;11.93;80.56;101957.09;5085268;28;20473;-85
2024/01/20 08:23:47;;;;;;;3.30;2.75;;;;;;;12.29;80.32;102018.88;5078700;28;20032;-86
2024/01/20 08:26:13;;;;;;;3.30;2.55;;;;;;;12.30;79.62;102025.06;5065143;28;20044;-87
2024/01/20 08:28:39;;;;;;;3.60;2.80;;;;;;;12.11;79.80;102015.94;5086752;28;20475;-86
2024/01/20 08:31:05;;;;;;;3.10;2.80;;;;;;;11.85;80.09;101964.38;5095930;27;20028;-87
2024/01/20 08:33:31;;;;;;;2.78;2.50;;;;;;;12.01;80.47;101997.78;5087326;28;20051;-87
2024/01/20 08:35:57;;;;;;;3.67;2.70;;;;;;;12.16;80.66;102039.81;5081412;28;20103;-88
2024/01/20 08:38:27;;;;;;;2.50;2.30;;;;;;;12.12;80.90;102032.56;5084123;28;20158;-89
2024/01/20 08:40:52;;;;;;;2.55;2.30;;;;;;;12.07;81.34;102031.34;5067499;28;20028;-89
2024/01/20 08:43:18;;;;;;;2.63;2.42;;;;;;;12.24;81.32;102054.34;5082982;28;20638;-90
2024/01/20 08:45:44;;;;;;;2.42;2.17;;;;;;;12.01;81.04;102016.13;5081878;28;20501;-91
2024/01/20 08:48:16;;;;;;;2.50;2.30;;;;;;;11.81;81.09;101988.56;5072457;28;20028;-92
2024/01/20 08:50:43;;;;;;;3.47;3.13;;;;;;;12.17;80.69;102053.03;5071462;28;20032;-91
2024/01/20 08:53:21;;;;;;;3.35;2.70;;;;;;;12.19;80.41;102053.09;5072239;28;20046;-92
2024/01/20 08:55:47;;;;;;;2.40;2.20;;;;;;;12.22;80.41;102053.31;5069206;28;20093;-91
2024/01/20 08:58:13;;;;;;;3.35;2.45;;;;;;;11.95;80.91;102027.06;5077637;28;20036;-89
2024/01/20 09:00:39;;;;;;;3.35;2.65;;;;;;;11.90;80.79;102015.38;5090438;28;20444;-91
2024/01/20 09:03:08;;;;;;;2.50;2.30;;;;;;;12.18;80.78;102078.41;5094668;28;20109;-90
2024/01/20 09:05:37;;;;;;;2.72;2.53;;;;;;;12.02;80.13;102059.81;5092468;28;20043;-91
2024/01/20 09:08:05;;;;;;;3.10;2.60;;;;;;;11.92;81.06;102039.06;5096591;28;20027;-90
2024/01/20 09:10:31;;;;;;;2.75;2.25;;;;;;;11.99;80.55;102062.22;5095336;28;20425;-89
2024/01/20 09:12:57;;;;;;;2.67;2.35;;;;;;;12.12;80.58;102083.22;5089967;28;20458;-88
2024/01/20 09:15:23;;;;;;;3.00;2.70;;;;;;;12.10;81.00;102082.19;5088267;28;20502;-89
2024/01/20 09:17:50;;;;;;;2.75;2.45;;;;;;;12.07;80.59;102084.63;5083837;28;20068;-90
2024/01/20 09:20:17;;;;;;;2.70;2.50;;;;;;;11.80;80.92;102047.81;5090184;28;20028;-89
2024/01/20 09:22:42;;;;;;;2.40;2.05;;;;;;;11.79;80.75;102059.09;5095081;28;20032;-88
2024/01/20 09:25:08;;;;;;;2.85;2.53;;;;;;;12.23;81.07;102136.31;5089203;28;20028;-91
2024/01/20 09:27:35;;;;;;;2.60;2.40;;;;;;;11.88;80.91;102068.41;5076183;28;20497;-92
2024/01/20 09:30:01;;;;;;;3.05;2.45;;;;;;;12.08;80.85;102096.00;5075687;28;20024;-89
2024/01/20 09:32:30;;;;;;;2.60;2.40;;;;;;;12.16;80.86;102129.75;5074283;28;20563;-88
2024/01/20 09:34:55;;;;;;;3.08;2.65;;;;;;;11.82;80.81;102069.78;5105486;27;20107;-85
2024/01/20 09:37:21;;;;;;;2.72;2.42;;;;;;;11.90;80.15;102082.53;5110098;27;20103;-86
2024/01/20 09:39:47;;;;;;;3.08;2.40;;;;;;;12.02;80.71;102093.84;5093923;28;20114;-87
2024/01/20 09:42:12;;;;;;;3.03;2.47;;;;;;;12.04;79.44;102146.31;5094248;28;20051;-87
2024/01/20 09:44:38;;;;;;;2.80;2.42;;;;;;;12.05;80.15;102137.69;5094202;28;20060;-87
2024/01/20 09:47:08;;;;;;;5.88;3.72;;;;;;;12.10;80.65;102124.09;5093032;28;20427;-87
2024/01/20 09:49:34;;;;;;;3.35;2.85;;;;;;;11.97;80.11;102100.47;5104728;28;20035;-87
2024/01/20 09:52:07;;;;;;;3.97;2.97;;;;;;;12.01;78.85;102110.38;5096728;28;20062;-87
2024/01/20 09:54:37;;;;;;;5.03;3.88;;;;;;;11.87;78.74;102080.56;5095480;28;20073;-87
2024/01/20 09:57:03;;;;;;;4.40;3.30;;;;;;;11.66;78.71;102052.91;5093926;28;20119;-86
2024/01/20 09:59:29;;;;;;;4.07;2.97;;;;;;;11.41;79.61;102028.53;5095534;28;20508;-87
2024/01/20 10:01:55;;;;;;;4.05;3.30;;;;;;;11.68;78.15;102070.50;5077234;28;20024;-86
2024/01/20 10:04:21;;;;;;;4.32;3.40;;;;;;;11.86;78.79;102114.50;5077477;28;20032;-86
2024/01/20 10:06:51;;;;;;;5.38;3.67;;;;;;;11.70;78.38;102089.84;5107504;28;20050;-85
2024/01/20 10:09:17;;;;;;;4.18;3.28;;;;;;;11.83;77.79;102125.63;5077239;28;20028;-86
2024/01/20 10:11:42;;;;;;;4.60;3.53;;;;;;;11.51;77.94;102058.84;5074560;28;20020;-87
2024/01/20 10:14:08;;;;;;;5.28;3.65;;;;;;;11.79;78.38;102110.56;5090698;28;20032;-86
2024/01/20 10:16:39;;;;;;;4.55;3.35;;;;;;;11.67;78.22;102091.38;5075492;28;20042;-87
2024/01/20 10:19:04;;;;;;;6.38;4.25;;;;;;;11.87;77.70;102119.81;5107652;27;20039;-87
2024/01/20 10:21:38;;;;;;;6.80;4.35;;;;;;;11.75;78.58;102108.53;5078752;28;20391;-88
2024/01/20 10:24:05;;;;;;;5.57;4.22;;;;;;;11.76;78.74;102116.44;5090980;28;20032;-87
2024/01/20 10:26:31;;;;;;;4.32;3.63;;;;;;;11.82;78.02;102127.34;5090784;28;20036;-86
2024/01/20 10:28:57;;;;;;;4.90;3.60;;;;;;;11.88;78.75;102133.84;5094961;28;20385;-86
2024/01/20 10:31:22;;;;;;;4.90;3.72;;;;;;;11.65;78.56;102095.56;5091957;28;20082;-86
2024/01/20 10:33:48;;;;;;;4.25;3.60;;;;;;;11.61;78.94;102091.81;5092029;28;20548;-86
2024/01/20 10:36:16;;;;;;;4.07;3.65;;;;;;;11.83;79.19;102143.97;5091449;28;20409;-87
2024/01/20 10:38:45;;;;;;;5.85;4.00;;;;;;;11.62;78.67;102111.97;5090851;28;20438;-86
2024/01/20 10:41:13;;;;;;;4.72;3.65;;;;;;;11.79;80.11;102155.06;5079642;28;20039;-85
2024/01/20 10:43:46;;;;;;;4.72;3.60;;;;;;;11.71;79.61;102132.66;5083501;28;20028;-85
2024/01/20 10:46:21;;;;;;;4.82;3.40;;;;;;;11.55;79.62;102105.38;5077515;28;20020;-86
2024/01/20 10:48:53;;;;;;;4.85;3.97;;;;;;;11.31;79.48;102069.63;5088604;28;20035;-85
2024/01/20 10:52:15;;;;;;;6.43;3.60;;;;;;;11.84;79.98;102163.22;5089563;28;20386;-85
2024/01/20 10:54:44;;;;;;;4.82;3.50;;;;;;;11.47;79.22;102092.53;5096564;28;20036;-85
2024/01/20 10:57:13;;;;;;;3.47;3.13;;;;;;;11.76;79.59;102149.56;5091746;28;20040;-86
2024/01/20 10:59:41;;;;;;;5.53;3.72;;;;;;;11.80;79.80;102164.69;5091014;28;20036;-85
2024/01/20 11:02:10;;;;;;;5.28;3.65;;;;;;;11.53;80.35;102113.91;5088930;28;20024;-85
2024/01/20 11:04:39;;;;;;;3.55;3.22;;;;;;;11.51;80.67;102100.72;5090939;28;20029;-84
2024/01/20 11:07:07;;;;;;;4.75;3.65;;;;;;;11.81;81.18;102166.53;5089289;28;20024;-84
2024/01/20 11:09:36;;;;;;;3.85;3.45;;;;;;;11.30;80.91;102067.78;5087114;28;20082;-85
2024/01/20 11:12:06;;;;;;;4.10;3.50;;;;;;;11.50;81.12;102125.06;5085382;28;20035;-85
2024/01/20 11:14:33;;;;;;;4.45;3.40;;;;;;;11.79;81.04;102173.38;5082713;28;20056;-85
2024/01/20 11:17:12;;;;;;;;;;;;;;;11.80;80.95;102168.22;5089247;28;20031;-85
2024/01/20 11:19:38;;;;;;;3.92;3.40;;;;;;;11.67;81.16;102159.41;5082489;28;19925;-85
2024/01/20 11:22:31;;;;;;;5.00;3.60;;;;;;;11.79;81.13;102192.59;5071293;28;20501;-85
2024/01/20 11:25:04;;;;;;;5.28;3.38;;;;;;;11.35;81.47;102106.56;5073408;28;20029;-85